sensor_id;sensor_type;location;lat;lon;timestamp;P1;durP1;ratioP1;P2;durP2;ratioP2
80225;SDS011;69538;42.000;21.452;2023-07-31T00:01:41;11.38;;;8.75;;
80225;SDS011;69538;42.000;21.452;2023-07-31T00:04:07;10.05;;;8.13;;
80225;SDS011;69538;42.000;21.452;2023-07-31T00:06:33;11.43;;;8.43;;
80225;SDS011;69538;42.000;21.452;2023-07-31T00:08:59;9.98;;;8.63;;
80225;SDS011;69538;42.000;21.452;2023-07-31T00:11:25;11.27;;;8.68;;
80225;SDS011;69538;42.000;21.452;2023-07-31T00:13:52;11.65;;;9.27;;
80225;SDS011;69538;42.000;21.452;2023-07-31T00:16:19;11.10;;;9.23;;
80225;SDS011;69538;42.000;21.452;2023-07-31T00:18:45;12.65;;;9.30;;
80225;SDS011;69538;42.000;21.452;2023-07-31T00:21:11;10.98;;;9.52;;
80225;SDS011;69538;42.000;21.452;2023-07-31T00:23:37;11.57;;;9.00;;
80225;SDS011;69538;42.000;21.452;2023-07-31T00:26:03;11.40;;;9.25;;
80225;SDS011;69538;42.000;21.452;2023-07-31T00:28:29;13.40;;;8.48;;
80225;SDS011;69538;42.000;21.452;2023-07-31T00:30:56;10.23;;;8.73;;
80225;SDS011;69538;42.000;21.452;2023-07-31T00:33:22;11.93;;;8.50;;
80225;SDS011;69538;42.000;21.452;2023-07-31T00:35:48;10.60;;;8.85;;
80225;SDS011;69538;42.000;21.452;2023-07-31T00:38:14;13.57;;;9.30;;
80225;SDS011;69538;42.000;21.452;2023-07-31T00:40:40;10.85;;;8.65;;
80225;SDS011;69538;42.000;21.452;2023-07-31T00:43:07;10.88;;;8.60;;
80225;SDS011;69538;42.000;21.452;2023-07-31T00:45:33;11.35;;;8.18;;
80225;SDS011;69538;42.000;21.452;2023-07-31T00:47:59;11.15;;;8.65;;
80225;SDS011;69538;42.000;21.452;2023-07-31T00:50:25;10.77;;;8.75;;
80225;SDS011;69538;42.000;21.452;2023-07-31T00:52:52;11.13;;;6.45;;
80225;SDS011;69538;42.000;21.452;2023-07-31T00:55:18;10.52;;;8.45;;
80225;SDS011;69538;42.000;21.452;2023-07-31T01:00:12;10.68;;;8.60;;
80225;SDS011;69538;42.000;21.452;2023-07-31T01:02:39;12.73;;;8.55;;
80225;SDS011;69538;42.000;21.452;2023-07-31T01:05:05;10.05;;;8.57;;
80225;SDS011;69538;42.000;21.452;2023-07-31T01:12:32;10.48;;;8.00;;
80225;SDS011;69538;42.000;21.452;2023-07-31T01:15:04;11.43;;;8.35;;
80225;SDS011;69538;42.000;21.452;2023-07-31T01:17:30;10.48;;;8.52;;
80225;SDS011;69538;42.000;21.452;2023-07-31T01:19:58;13.90;;;9.25;;
80225;SDS011;69538;42.000;21.452;2023-07-31T01:25:31;11.60;;;8.15;;
80225;SDS011;69538;42.000;21.452;2023-07-31T01:28:03;10.55;;;8.50;;
80225;SDS011;69538;42.000;21.452;2023-07-31T01:30:32;10.80;;;7.95;;
80225;SDS011;69538;42.000;21.452;2023-07-31T01:33:00;13.02;;;9.15;;
80225;SDS011;69538;42.000;21.452;2023-07-31T01:35:32;10.65;;;7.15;;
80225;SDS011;69538;42.000;21.452;2023-07-31T01:37:58;10.93;;;7.45;;
80225;SDS011;69538;42.000;21.452;2023-07-31T01:40:24;10.73;;;6.68;;
80225;SDS011;69538;42.000;21.452;2023-07-31T01:42:50;13.43;;;7.07;;
80225;SDS011;69538;42.000;21.452;2023-07-31T01:45:16;11.48;;;6.05;;
80225;SDS011;69538;42.000;21.452;2023-07-31T01:47:42;10.07;;;5.32;;
80225;SDS011;69538;42.000;21.452;2023-07-31T01:50:09;11.10;;;5.70;;
80225;SDS011;69538;42.000;21.452;2023-07-31T01:52:35;8.50;;;5.55;;
80225;SDS011;69538;42.000;21.452;2023-07-31T01:55:01;10.98;;;5.80;;
80225;SDS011;69538;42.000;21.452;2023-07-31T01:57:27;8.25;;;5.22;;
80225;SDS011;69538;42.000;21.452;2023-07-31T01:59:53;7.18;;;4.90;;
80225;SDS011;69538;42.000;21.452;2023-07-31T02:02:20;10.07;;;5.85;;
80225;SDS011;69538;42.000;21.452;2023-07-31T02:04:46;9.88;;;6.03;;
80225;SDS011;69538;42.000;21.452;2023-07-31T02:07:12;10.85;;;5.88;;
80225;SDS011;69538;42.000;21.452;2023-07-31T02:09:38;11.38;;;6.65;;
80225;SDS011;69538;42.000;21.452;2023-07-31T02:12:05;12.85;;;6.75;;
80225;SDS011;69538;42.000;21.452;2023-07-31T02:14:33;10.18;;;6.57;;
80225;SDS011;69538;42.000;21.452;2023-07-31T02:16:59;14.05;;;6.80;;
80225;SDS011;69538;42.000;21.452;2023-07-31T02:19:26;12.40;;;6.13;;
80225;SDS011;69538;42.000;21.452;2023-07-31T02:21:52;10.55;;;6.18;;
80225;SDS011;69538;42.000;21.452;2023-07-31T02:24:18;11.45;;;6.40;;
80225;SDS011;69538;42.000;21.452;2023-07-31T02:26:44;8.45;;;5.68;;
80225;SDS011;69538;42.000;21.452;2023-07-31T02:29:10;13.85;;;6.47;;
80225;SDS011;69538;42.000;21.452;2023-07-31T02:31:36;9.32;;;5.82;;
80225;SDS011;69538;42.000;21.452;2023-07-31T02:34:02;10.98;;;6.25;;
80225;SDS011;69538;42.000;21.452;2023-07-31T02:36:29;11.00;;;6.72;;
80225;SDS011;69538;42.000;21.452;2023-07-31T02:38:55;11.05;;;5.95;;
80225;SDS011;69538;42.000;21.452;2023-07-31T02:41:21;10.45;;;6.32;;
80225;SDS011;69538;42.000;21.452;2023-07-31T02:43:47;10.55;;;6.18;;
80225;SDS011;69538;42.000;21.452;2023-07-31T02:46:13;9.75;;;6.00;;
80225;SDS011;69538;42.000;21.452;2023-07-31T02:48:39;11.50;;;6.65;;
80225;SDS011;69538;42.000;21.452;2023-07-31T02:51:06;9.82;;;6.03;;
80225;SDS011;69538;42.000;21.452;2023-07-31T02:53:32;10.32;;;6.65;;
80225;SDS011;69538;42.000;21.452;2023-07-31T02:55:58;8.75;;;5.90;;
80225;SDS011;69538;42.000;21.452;2023-07-31T02:58:24;11.57;;;6.47;;
80225;SDS011;69538;42.000;21.452;2023-07-31T03:00:50;9.63;;;6.07;;
80225;SDS011;69538;42.000;21.452;2023-07-31T03:03:16;11.93;;;6.70;;
80225;SDS011;69538;42.000;21.452;2023-07-31T03:05:42;11.00;;;6.55;;
80225;SDS011;69538;42.000;21.452;2023-07-31T03:08:09;8.63;;;6.68;;
80225;SDS011;69538;42.000;21.452;2023-07-31T03:10:35;9.68;;;6.63;;
80225;SDS011;69538;42.000;21.452;2023-07-31T03:13:01;12.07;;;7.45;;
80225;SDS011;69538;42.000;21.452;2023-07-31T03:15:27;13.05;;;6.97;;
80225;SDS011;69538;42.000;21.452;2023-07-31T03:17:53;9.82;;;7.07;;
80225;SDS011;69538;42.000;21.452;2023-07-31T03:20:19;10.55;;;7.70;;
80225;SDS011;69538;42.000;21.452;2023-07-31T03:22:45;11.48;;;6.90;;
80225;SDS011;69538;42.000;21.452;2023-07-31T03:25:11;10.70;;;7.20;;
80225;SDS011;69538;42.000;21.452;2023-07-31T03:27:39;10.27;;;7.20;;
80225;SDS011;69538;42.000;21.452;2023-07-31T03:30:05;13.23;;;7.90;;
80225;SDS011;69538;42.000;21.452;2023-07-31T03:32:32;12.55;;;8.20;;
80225;SDS011;69538;42.000;21.452;2023-07-31T03:34:58;12.90;;;8.40;;
80225;SDS011;69538;42.000;21.452;2023-07-31T03:37:24;16.23;;;8.90;;
80225;SDS011;69538;42.000;21.452;2023-07-31T03:39:51;20.17;;;8.38;;
80225;SDS011;69538;42.000;21.452;2023-07-31T03:42:17;16.70;;;8.77;;
80225;SDS011;69538;42.000;21.452;2023-07-31T03:44:43;13.05;;;8.10;;
80225;SDS011;69538;42.000;21.452;2023-07-31T03:47:09;17.15;;;8.15;;
80225;SDS011;69538;42.000;21.452;2023-07-31T03:49:36;15.68;;;8.50;;
80225;SDS011;69538;42.000;21.452;2023-07-31T03:52:02;18.13;;;8.93;;
80225;SDS011;69538;42.000;21.452;2023-07-31T03:54:28;12.45;;;7.65;;
80225;SDS011;69538;42.000;21.452;2023-07-31T03:56:54;15.45;;;7.68;;
80225;SDS011;69538;42.000;21.452;2023-07-31T03:59:20;14.02;;;8.23;;
80225;SDS011;69538;42.000;21.452;2023-07-31T04:01:46;13.38;;;8.05;;
80225;SDS011;69538;42.000;21.452;2023-07-31T04:04:13;16.95;;;7.85;;
80225;SDS011;69538;42.000;21.452;2023-07-31T04:06:39;14.98;;;7.68;;
80225;SDS011;69538;42.000;21.452;2023-07-31T04:09:05;10.95;;;7.50;;
80225;SDS011;69538;42.000;21.452;2023-07-31T04:11:31;14.60;;;7.57;;
80225;SDS011;69538;42.000;21.452;2023-07-31T04:13:57;12.10;;;8.02;;
80225;SDS011;69538;42.000;21.452;2023-07-31T04:16:24;11.82;;;7.13;;
80225;SDS011;69538;42.000;21.452;2023-07-31T04:18:50;12.07;;;7.75;;
80225;SDS011;69538;42.000;21.452;2023-07-31T04:21:16;11.73;;;7.97;;
80225;SDS011;69538;42.000;21.452;2023-07-31T04:23:42;10.70;;;7.63;;
80225;SDS011;69538;42.000;21.452;2023-07-31T04:26:09;11.40;;;7.65;;
80225;SDS011;69538;42.000;21.452;2023-07-31T04:28:35;13.23;;;7.45;;
80225;SDS011;69538;42.000;21.452;2023-07-31T04:31:01;11.88;;;7.95;;
80225;SDS011;69538;42.000;21.452;2023-07-31T04:33:27;12.65;;;8.05;;
80225;SDS011;69538;42.000;21.452;2023-07-31T04:35:53;9.13;;;7.32;;
80225;SDS011;69538;42.000;21.452;2023-07-31T04:38:20;13.00;;;7.68;;
80225;SDS011;69538;42.000;21.452;2023-07-31T04:40:47;12.65;;;7.53;;
80225;SDS011;69538;42.000;21.452;2023-07-31T04:43:13;11.77;;;7.40;;
80225;SDS011;69538;42.000;21.452;2023-07-31T04:45:41;10.95;;;7.05;;
80225;SDS011;69538;42.000;21.452;2023-07-31T04:48:08;12.48;;;7.30;;
80225;SDS011;69538;42.000;21.452;2023-07-31T04:50:34;13.65;;;7.40;;
80225;SDS011;69538;42.000;21.452;2023-07-31T04:53:00;12.52;;;7.30;;
80225;SDS011;69538;42.000;21.452;2023-07-31T04:55:26;11.15;;;7.63;;
80225;SDS011;69538;42.000;21.452;2023-07-31T04:57:52;11.68;;;7.82;;
80225;SDS011;69538;42.000;21.452;2023-07-31T05:00:19;18.52;;;8.35;;
80225;SDS011;69538;42.000;21.452;2023-07-31T05:02:45;19.17;;;8.43;;
80225;SDS011;69538;42.000;21.452;2023-07-31T05:05:11;17.48;;;9.80;;
80225;SDS011;69538;42.000;21.452;2023-07-31T05:07:37;15.02;;;7.93;;
80225;SDS011;69538;42.000;21.452;2023-07-31T05:10:04;11.85;;;8.23;;
80225;SDS011;69538;42.000;21.452;2023-07-31T05:12:30;11.07;;;7.15;;
80225;SDS011;69538;42.000;21.452;2023-07-31T05:14:56;10.93;;;7.20;;
80225;SDS011;69538;42.000;21.452;2023-07-31T05:17:22;11.75;;;7.95;;
80225;SDS011;69538;42.000;21.452;2023-07-31T05:19:48;10.95;;;6.90;;
80225;SDS011;69538;42.000;21.452;2023-07-31T05:22:14;22.00;;;8.93;;
80225;SDS011;69538;42.000;21.452;2023-07-31T05:24:41;17.13;;;8.07;;
80225;SDS011;69538;42.000;21.452;2023-07-31T05:27:07;16.08;;;7.70;;
80225;SDS011;69538;42.000;21.452;2023-07-31T05:29:34;13.70;;;7.78;;
80225;SDS011;69538;42.000;21.452;2023-07-31T05:32:01;12.90;;;6.97;;
80225;SDS011;69538;42.000;21.452;2023-07-31T05:34:27;10.98;;;7.28;;
80225;SDS011;69538;42.000;21.452;2023-07-31T05:36:53;13.45;;;7.03;;
80225;SDS011;69538;42.000;21.452;2023-07-31T05:39:19;17.30;;;7.22;;
80225;SDS011;69538;42.000;21.452;2023-07-31T05:41:45;13.68;;;7.70;;
80225;SDS011;69538;42.000;21.452;2023-07-31T05:44:11;12.90;;;7.78;;
80225;SDS011;69538;42.000;21.452;2023-07-31T05:46:38;13.88;;;7.07;;
80225;SDS011;69538;42.000;21.452;2023-07-31T05:49:04;14.73;;;7.40;;
80225;SDS011;69538;42.000;21.452;2023-07-31T05:51:30;13.45;;;7.40;;
80225;SDS011;69538;42.000;21.452;2023-07-31T05:53:56;15.13;;;7.03;;
80225;SDS011;69538;42.000;21.452;2023-07-31T05:56:22;15.52;;;7.55;;
80225;SDS011;69538;42.000;21.452;2023-07-31T05:58:48;15.52;;;8.27;;
80225;SDS011;69538;42.000;21.452;2023-07-31T06:01:16;16.85;;;6.93;;
80225;SDS011;69538;42.000;21.452;2023-07-31T06:03:42;13.15;;;6.75;;
80225;SDS011;69538;42.000;21.452;2023-07-31T06:06:09;12.88;;;6.40;;
80225;SDS011;69538;42.000;21.452;2023-07-31T06:08:35;11.95;;;6.68;;
80225;SDS011;69538;42.000;21.452;2023-07-31T06:11:01;12.90;;;6.03;;
80225;SDS011;69538;42.000;21.452;2023-07-31T06:13:27;10.18;;;5.90;;
80225;SDS011;69538;42.000;21.452;2023-07-31T06:15:54;12.90;;;5.93;;
80225;SDS011;69538;42.000;21.452;2023-07-31T06:18:20;18.77;;;6.97;;
80225;SDS011;69538;42.000;21.452;2023-07-31T06:20:46;9.48;;;6.25;;
80225;SDS011;69538;42.000;21.452;2023-07-31T06:23:12;15.13;;;6.10;;
80225;SDS011;69538;42.000;21.452;2023-07-31T06:25:38;12.25;;;6.20;;
80225;SDS011;69538;42.000;21.452;2023-07-31T06:28:06;8.10;;;5.75;;
80225;SDS011;69538;42.000;21.452;2023-07-31T06:30:32;9.20;;;6.15;;
80225;SDS011;69538;42.000;21.452;2023-07-31T06:32:58;8.85;;;5.75;;
80225;SDS011;69538;42.000;21.452;2023-07-31T06:35:24;8.57;;;6.13;;
80225;SDS011;69538;42.000;21.452;2023-07-31T06:37:50;10.18;;;6.10;;
80225;SDS011;69538;42.000;21.452;2023-07-31T06:40:17;7.47;;;5.53;;
80225;SDS011;69538;42.000;21.452;2023-07-31T06:42:44;8.05;;;4.97;;
80225;SDS011;69538;42.000;21.452;2023-07-31T06:45:10;11.10;;;8.07;;
80225;SDS011;69538;42.000;21.452;2023-07-31T06:47:36;9.93;;;6.40;;
80225;SDS011;69538;42.000;21.452;2023-07-31T06:50:03;6.45;;;3.95;;
80225;SDS011;69538;42.000;21.452;2023-07-31T06:52:29;7.35;;;5.15;;
80225;SDS011;69538;42.000;21.452;2023-07-31T06:55:15;6.07;;;4.40;;
80225;SDS011;69538;42.000;21.452;2023-07-31T06:57:45;11.95;;;8.23;;
80225;SDS011;69538;42.000;21.452;2023-07-31T07:00:12;5.97;;;4.20;;
80225;SDS011;69538;42.000;21.452;2023-07-31T07:02:38;18.90;;;15.77;;
80225;SDS011;69538;42.000;21.452;2023-07-31T07:05:04;14.55;;;11.15;;
80225;SDS011;69538;42.000;21.452;2023-07-31T07:07:31;17.83;;;14.10;;
80225;SDS011;69538;42.000;21.452;2023-07-31T07:09:57;10.98;;;8.52;;
80225;SDS011;69538;42.000;21.452;2023-07-31T07:12:25;7.65;;;4.25;;
80225;SDS011;69538;42.000;21.452;2023-07-31T07:14:51;7.25;;;5.43;;
80225;SDS011;69538;42.000;21.452;2023-07-31T07:17:18;6.85;;;4.25;;
80225;SDS011;69538;42.000;21.452;2023-07-31T07:19:44;6.03;;;3.92;;
80225;SDS011;69538;42.000;21.452;2023-07-31T07:22:11;7.32;;;4.55;;
80225;SDS011;69538;42.000;21.452;2023-07-31T07:24:37;9.32;;;4.60;;
80225;SDS011;69538;42.000;21.452;2023-07-31T07:27:03;7.15;;;4.32;;
80225;SDS011;69538;42.000;21.452;2023-07-31T07:29:29;6.10;;;4.10;;
80225;SDS011;69538;42.000;21.452;2023-07-31T07:31:55;6.75;;;3.80;;
80225;SDS011;69538;42.000;21.452;2023-07-31T07:34:25;6.32;;;4.28;;
80225;SDS011;69538;42.000;21.452;2023-07-31T07:36:52;8.82;;;4.25;;
80225;SDS011;69538;42.000;21.452;2023-07-31T07:39:21;5.88;;;4.30;;
80225;SDS011;69538;42.000;21.452;2023-07-31T07:41:47;6.93;;;4.35;;
80225;SDS011;69538;42.000;21.452;2023-07-31T07:44:14;5.95;;;4.15;;
80225;SDS011;69538;42.000;21.452;2023-07-31T07:46:40;6.05;;;4.30;;
80225;SDS011;69538;42.000;21.452;2023-07-31T07:49:06;7.00;;;5.15;;
80225;SDS011;69538;42.000;21.452;2023-07-31T07:51:32;6.60;;;4.68;;
80225;SDS011;69538;42.000;21.452;2023-07-31T07:53:58;7.30;;;4.47;;
80225;SDS011;69538;42.000;21.452;2023-07-31T07:56:25;5.70;;;4.20;;
80225;SDS011;69538;42.000;21.452;2023-07-31T07:58:51;9.43;;;3.65;;
80225;SDS011;69538;42.000;21.452;2023-07-31T08:01:18;7.93;;;4.57;;
80225;SDS011;69538;42.000;21.452;2023-07-31T08:03:44;6.28;;;3.75;;
80225;SDS011;69538;42.000;21.452;2023-07-31T08:06:11;6.93;;;4.10;;
80225;SDS011;69538;42.000;21.452;2023-07-31T08:08:37;5.70;;;4.47;;
80225;SDS011;69538;42.000;21.452;2023-07-31T08:11:04;5.18;;;3.47;;
80225;SDS011;69538;42.000;21.452;2023-07-31T08:13:30;6.80;;;4.10;;
80225;SDS011;69538;42.000;21.452;2023-07-31T08:15:56;5.40;;;3.60;;
80225;SDS011;69538;42.000;21.452;2023-07-31T08:18:22;5.70;;;3.90;;
80225;SDS011;69538;42.000;21.452;2023-07-31T08:20:48;5.50;;;3.50;;
80225;SDS011;69538;42.000;21.452;2023-07-31T08:23:15;8.07;;;5.72;;
80225;SDS011;69538;42.000;21.452;2023-07-31T08:25:41;7.97;;;5.45;;
80225;SDS011;69538;42.000;21.452;2023-07-31T08:28:07;5.53;;;3.58;;
80225;SDS011;69538;42.000;21.452;2023-07-31T08:30:33;7.43;;;3.80;;
80225;SDS011;69538;42.000;21.452;2023-07-31T08:33:00;6.85;;;3.15;;
80225;SDS011;69538;42.000;21.452;2023-07-31T08:35:26;10.95;;;6.07;;
80225;SDS011;69538;42.000;21.452;2023-07-31T08:37:56;12.27;;;6.72;;
80225;SDS011;69538;42.000;21.452;2023-07-31T08:40:22;7.57;;;3.58;;
80225;SDS011;69538;42.000;21.452;2023-07-31T08:42:49;5.68;;;3.58;;
80225;SDS011;69538;42.000;21.452;2023-07-31T08:45:16;7.57;;;3.45;;
80225;SDS011;69538;42.000;21.452;2023-07-31T08:47:44;5.80;;;3.50;;
80225;SDS011;69538;42.000;21.452;2023-07-31T08:50:12;10.27;;;8.32;;
80225;SDS011;69538;42.000;21.452;2023-07-31T08:52:38;5.00;;;3.15;;
80225;SDS011;69538;42.000;21.452;2023-07-31T08:55:05;8.40;;;3.53;;
80225;SDS011;69538;42.000;21.452;2023-07-31T08:57:31;5.60;;;3.30;;
80225;SDS011;69538;42.000;21.452;2023-07-31T09:02:25;6.20;;;2.40;;
80225;SDS011;69538;42.000;21.452;2023-07-31T09:04:55;6.03;;;2.35;;
80225;SDS011;69538;42.000;21.452;2023-07-31T09:07:21;5.72;;;2.70;;
80225;SDS011;69538;42.000;21.452;2023-07-31T09:09:48;15.10;;;4.53;;
80225;SDS011;69538;42.000;21.452;2023-07-31T09:12:14;7.35;;;3.17;;
80225;SDS011;69538;42.000;21.452;2023-07-31T09:14:40;5.80;;;2.53;;
80225;SDS011;69538;42.000;21.452;2023-07-31T09:17:07;4.05;;;2.50;;
80225;SDS011;69538;42.000;21.452;2023-07-31T09:19:35;3.78;;;2.38;;
80225;SDS011;69538;42.000;21.452;2023-07-31T09:22:05;3.78;;;2.50;;
80225;SDS011;69538;42.000;21.452;2023-07-31T09:24:32;5.68;;;2.63;;
80225;SDS011;69538;42.000;21.452;2023-07-31T09:26:59;4.28;;;2.65;;
80225;SDS011;69538;42.000;21.452;2023-07-31T09:29:26;4.30;;;2.80;;
80225;SDS011;69538;42.000;21.452;2023-07-31T09:31:53;6.75;;;3.10;;
80225;SDS011;69538;42.000;21.452;2023-07-31T09:34:20;9.25;;;5.25;;
80225;SDS011;69538;42.000;21.452;2023-07-31T09:36:48;17.70;;;11.98;;
80225;SDS011;69538;42.000;21.452;2023-07-31T09:39:15;4.10;;;2.70;;
80225;SDS011;69538;42.000;21.452;2023-07-31T09:41:46;5.43;;;2.60;;
80225;SDS011;69538;42.000;21.452;2023-07-31T09:44:12;6.85;;;2.47;;
80225;SDS011;69538;42.000;21.452;2023-07-31T09:46:39;4.38;;;2.35;;
80225;SDS011;69538;42.000;21.452;2023-07-31T09:49:06;5.05;;;2.08;;
80225;SDS011;69538;42.000;21.452;2023-07-31T09:51:34;11.43;;;7.07;;
80225;SDS011;69538;42.000;21.452;2023-07-31T09:54:04;5.00;;;2.50;;
80225;SDS011;69538;42.000;21.452;2023-07-31T09:56:30;4.82;;;2.47;;
80225;SDS011;69538;42.000;21.452;2023-07-31T09:58:57;3.65;;;2.00;;
80225;SDS011;69538;42.000;21.452;2023-07-31T10:01:23;4.97;;;2.70;;
80225;SDS011;69538;42.000;21.452;2023-07-31T10:03:49;4.25;;;2.75;;
80225;SDS011;69538;42.000;21.452;2023-07-31T10:06:16;3.92;;;2.20;;
80225;SDS011;69538;42.000;21.452;2023-07-31T10:08:44;3.55;;;2.10;;
80225;SDS011;69538;42.000;21.452;2023-07-31T10:11:12;4.15;;;2.25;;
80225;SDS011;69538;42.000;21.452;2023-07-31T10:13:39;6.60;;;2.80;;
80225;SDS011;69538;42.000;21.452;2023-07-31T10:16:07;16.00;;;7.85;;
80225;SDS011;69538;42.000;21.452;2023-07-31T10:18:35;5.93;;;3.63;;
80225;SDS011;69538;42.000;21.452;2023-07-31T10:21:01;4.03;;;2.13;;
80225;SDS011;69538;42.000;21.452;2023-07-31T10:23:28;4.40;;;2.15;;
80225;SDS011;69538;42.000;21.452;2023-07-31T10:25:55;10.60;;;6.25;;
80225;SDS011;69538;42.000;21.452;2023-07-31T10:28:23;7.40;;;3.45;;
80225;SDS011;69538;42.000;21.452;2023-07-31T10:30:50;3.53;;;2.35;;
80225;SDS011;69538;42.000;21.452;2023-07-31T10:33:17;5.38;;;2.88;;
80225;SDS011;69538;42.000;21.452;2023-07-31T10:40:37;8.88;;;5.50;;
80225;SDS011;69538;42.000;21.452;2023-07-31T10:43:07;12.98;;;7.63;;
80225;SDS011;69538;42.000;21.452;2023-07-31T10:45:39;6.35;;;4.00;;
80225;SDS011;69538;42.000;21.452;2023-07-31T10:48:14;4.00;;;2.30;;
80225;SDS011;69538;42.000;21.452;2023-07-31T10:50:48;11.30;;;8.70;;
80225;SDS011;69538;42.000;21.452;2023-07-31T10:53:25;14.68;;;12.73;;
80225;SDS011;69538;42.000;21.452;2023-07-31T10:55:51;15.98;;;12.98;;
80225;SDS011;69538;42.000;21.452;2023-07-31T10:58:18;5.25;;;3.08;;
80225;SDS011;69538;42.000;21.452;2023-07-31T11:00:45;5.30;;;3.28;;
80225;SDS011;69538;42.000;21.452;2023-07-31T11:03:15;5.60;;;3.50;;
80225;SDS011;69538;42.000;21.452;2023-07-31T11:06:00;5.63;;;3.50;;
80225;SDS011;69538;42.000;21.452;2023-07-31T11:08:31;4.55;;;3.20;;
80225;SDS011;69538;42.000;21.452;2023-07-31T11:20:42;7.95;;;6.18;;
80225;SDS011;69538;42.000;21.452;2023-07-31T11:23:08;6.15;;;4.13;;
80225;SDS011;69538;42.000;21.452;2023-07-31T11:25:35;5.45;;;4.10;;
80225;SDS011;69538;42.000;21.452;2023-07-31T11:28:06;6.65;;;4.32;;
80225;SDS011;69538;42.000;21.452;2023-07-31T11:30:33;7.43;;;4.25;;
80225;SDS011;69538;42.000;21.452;2023-07-31T11:33:00;5.95;;;4.00;;
80225;SDS011;69538;42.000;21.452;2023-07-31T11:35:28;9.82;;;4.80;;
80225;SDS011;69538;42.000;21.452;2023-07-31T11:37:55;5.18;;;3.83;;
80225;SDS011;69538;42.000;21.452;2023-07-31T11:40:21;14.60;;;12.80;;
80225;SDS011;69538;42.000;21.452;2023-07-31T11:42:47;5.43;;;4.40;;
80225;SDS011;69538;42.000;21.452;2023-07-31T11:45:13;7.45;;;6.65;;
80225;SDS011;69538;42.000;21.452;2023-07-31T11:47:39;5.15;;;4.20;;
80225;SDS011;69538;42.000;21.452;2023-07-31T11:50:06;5.82;;;4.88;;
80225;SDS011;69538;42.000;21.452;2023-07-31T11:52:37;6.68;;;5.20;;
80225;SDS011;69538;42.000;21.452;2023-07-31T11:55:06;6.90;;;5.10;;
80225;SDS011;69538;42.000;21.452;2023-07-31T11:57:34;7.53;;;4.97;;
80225;SDS011;69538;42.000;21.452;2023-07-31T12:00:01;7.60;;;6.80;;
80225;SDS011;69538;42.000;21.452;2023-07-31T12:02:28;6.60;;;5.47;;
80225;SDS011;69538;42.000;21.452;2023-07-31T12:04:54;6.15;;;5.05;;
80225;SDS011;69538;42.000;21.452;2023-07-31T12:07:20;6.03;;;4.85;;
80225;SDS011;69538;42.000;21.452;2023-07-31T12:09:50;6.50;;;5.13;;
80225;SDS011;69538;42.000;21.452;2023-07-31T12:12:20;7.15;;;5.47;;
80225;SDS011;69538;42.000;21.452;2023-07-31T12:14:47;6.70;;;5.55;;
80225;SDS011;69538;42.000;21.452;2023-07-31T12:17:13;11.40;;;7.68;;
80225;SDS011;69538;42.000;21.452;2023-07-31T12:19:40;7.97;;;6.57;;
80225;SDS011;69538;42.000;21.452;2023-07-31T12:22:13;7.40;;;5.90;;
80225;SDS011;69538;42.000;21.452;2023-07-31T12:24:41;9.23;;;7.63;;
80225;SDS011;69538;42.000;21.452;2023-07-31T12:27:13;8.27;;;6.55;;
80225;SDS011;69538;42.000;21.452;2023-07-31T12:29:41;10.50;;;9.40;;
80225;SDS011;69538;42.000;21.452;2023-07-31T12:32:22;12.52;;;11.23;;
80225;SDS011;69538;42.000;21.452;2023-07-31T12:37:15;7.70;;;6.65;;
80225;SDS011;69538;42.000;21.452;2023-07-31T12:39:41;8.18;;;7.30;;
80225;SDS011;69538;42.000;21.452;2023-07-31T12:42:07;11.23;;;9.68;;
80225;SDS011;69538;42.000;21.452;2023-07-31T12:44:33;7.40;;;5.95;;
80225;SDS011;69538;42.000;21.452;2023-07-31T12:46:59;9.10;;;6.57;;
80225;SDS011;69538;42.000;21.452;2023-07-31T12:49:26;6.68;;;5.90;;
80225;SDS011;69538;42.000;21.452;2023-07-31T12:51:52;6.18;;;5.13;;
80225;SDS011;69538;42.000;21.452;2023-07-31T12:54:19;5.10;;;4.28;;
80225;SDS011;69538;42.000;21.452;2023-07-31T12:56:45;7.07;;;5.22;;
80225;SDS011;69538;42.000;21.452;2023-07-31T12:59:11;6.85;;;5.10;;
80225;SDS011;69538;42.000;21.452;2023-07-31T13:01:37;6.22;;;5.10;;
80225;SDS011;69538;42.000;21.452;2023-07-31T13:04:03;5.47;;;4.25;;
80225;SDS011;69538;42.000;21.452;2023-07-31T13:06:29;10.63;;;5.22;;
80225;SDS011;69538;42.000;21.452;2023-07-31T13:08:56;6.13;;;3.97;;
80225;SDS011;69538;42.000;21.452;2023-07-31T13:11:22;5.82;;;4.10;;
80225;SDS011;69538;42.000;21.452;2023-07-31T13:13:48;6.82;;;4.63;;
80225;SDS011;69538;42.000;21.452;2023-07-31T13:16:14;4.80;;;3.80;;
80225;SDS011;69538;42.000;21.452;2023-07-31T13:18:40;5.30;;;3.95;;
80225;SDS011;69538;42.000;21.452;2023-07-31T13:21:06;4.60;;;3.80;;
80225;SDS011;69538;42.000;21.452;2023-07-31T13:23:33;4.95;;;3.50;;
80225;SDS011;69538;42.000;21.452;2023-07-31T13:25:59;5.63;;;3.55;;
80225;SDS011;69538;42.000;21.452;2023-07-31T13:28:25;5.00;;;3.70;;
80225;SDS011;69538;42.000;21.452;2023-07-31T13:30:51;5.05;;;3.22;;
80225;SDS011;69538;42.000;21.452;2023-07-31T13:33:17;5.80;;;3.47;;
80225;SDS011;69538;42.000;21.452;2023-07-31T13:35:43;5.68;;;3.92;;
80225;SDS011;69538;42.000;21.452;2023-07-31T13:38:10;4.90;;;3.65;;
80225;SDS011;69538;42.000;21.452;2023-07-31T13:40:36;4.60;;;3.20;;
80225;SDS011;69538;42.000;21.452;2023-07-31T13:43:02;4.65;;;3.40;;
80225;SDS011;69538;42.000;21.452;2023-07-31T13:45:28;5.30;;;2.90;;
80225;SDS011;69538;42.000;21.452;2023-07-31T13:47:54;6.75;;;3.45;;
80225;SDS011;69538;42.000;21.452;2023-07-31T13:50:21;7.43;;;3.47;;
80225;SDS011;69538;42.000;21.452;2023-07-31T13:52:47;4.72;;;2.92;;
80225;SDS011;69538;42.000;21.452;2023-07-31T13:55:13;5.88;;;3.13;;
80225;SDS011;69538;42.000;21.452;2023-07-31T13:57:40;5.30;;;2.58;;
80225;SDS011;69538;42.000;21.452;2023-07-31T14:00:06;3.90;;;2.50;;
80225;SDS011;69538;42.000;21.452;2023-07-31T14:02:33;4.70;;;3.20;;
80225;SDS011;69538;42.000;21.452;2023-07-31T14:04:59;5.22;;;3.45;;
80225;SDS011;69538;42.000;21.452;2023-07-31T14:07:25;11.80;;;3.45;;
80225;SDS011;69538;42.000;21.452;2023-07-31T14:09:51;4.55;;;2.80;;
80225;SDS011;69538;42.000;21.452;2023-07-31T14:12:17;4.93;;;2.92;;
80225;SDS011;69538;42.000;21.452;2023-07-31T14:14:44;4.80;;;3.10;;
80225;SDS011;69538;42.000;21.452;2023-07-31T14:17:10;4.03;;;3.00;;
80225;SDS011;69538;42.000;21.452;2023-07-31T14:19:36;4.30;;;3.20;;
80225;SDS011;69538;42.000;21.452;2023-07-31T14:22:02;5.07;;;3.10;;
80225;SDS011;69538;42.000;21.452;2023-07-31T14:24:28;4.85;;;2.75;;
80225;SDS011;69538;42.000;21.452;2023-07-31T14:26:54;4.72;;;2.60;;
80225;SDS011;69538;42.000;21.452;2023-07-31T14:29:21;3.70;;;2.63;;
80225;SDS011;69538;42.000;21.452;2023-07-31T14:31:47;4.05;;;2.60;;
80225;SDS011;69538;42.000;21.452;2023-07-31T14:34:13;6.57;;;2.90;;
80225;SDS011;69538;42.000;21.452;2023-07-31T14:36:40;4.00;;;2.70;;
80225;SDS011;69538;42.000;21.452;2023-07-31T14:39:07;6.32;;;2.78;;
80225;SDS011;69538;42.000;21.452;2023-07-31T14:41:33;5.60;;;2.92;;
80225;SDS011;69538;42.000;21.452;2023-07-31T14:43:59;4.63;;;2.70;;
80225;SDS011;69538;42.000;21.452;2023-07-31T14:46:25;4.47;;;2.42;;
80225;SDS011;69538;42.000;21.452;2023-07-31T14:48:51;5.50;;;3.13;;
80225;SDS011;69538;42.000;21.452;2023-07-31T14:51:17;6.72;;;2.97;;
80225;SDS011;69538;42.000;21.452;2023-07-31T14:53:44;4.20;;;2.78;;
80225;SDS011;69538;42.000;21.452;2023-07-31T14:56:12;7.15;;;2.90;;